Terminal Aerodrome Forecast
Issued by NWS

Home | Current Version | Previous Version | Text Only | Print | Product List | Glossary On
Versions: 1 2 3 4 5 6 7 8 9 10 11 12 13 14 15 16 17 18 19 20
000
FTUS44 KMAF 222300 RRA
TAFHOB
TAF
KHOB 222346Z 2300/2324 09010KT P6SM SCT080
     FM230200 06015KT P6SM BKN070
     FM230600 03017G27KT 5SM -RASN BR OVC010
     FM231200 02020G30KT 3SM -SN BR OVC010
      TEMPO 2312/2315 1/2SM SN FG BKN007 OVC010
     FM231600 35017G27KT P6SM SCT020 SCT090=

USA.gov is the U.S. government's official web portal to all federal, state and local government web resources and services.